Time;durP1;ratioP1;P1;durP2;ratioP2;P2;SDS_P1;SDS_P2;PMS_P1;PMS_P2;Temp;Humidity;BMP_temperature;BMP_pressure;BME280_temperature;BME280_humidity;BME280_pressure;Samples;Min_cycle;Max_cycle;Signal;HPM_P1;HPM_P2
2024/04/11 00:00:59;;;;;;;;;;;;;;;14.93;90.91;101162.94;107641;1259;62061;-77
2024/04/11 00:03:26;;;;;;;;;;;;;;;14.87;90.99;101163.92;107644;1259;62073;-76
2024/04/11 00:05:55;;;;;;;;;;;;;;;14.82;91.01;101166.98;107639;1259;75421;-76
2024/04/11 00:08:22;;;;;;;;;;;;;;;14.76;91.24;101171.34;107642;1259;72867;-76
2024/04/11 00:10:49;;;;;;;;;;;;;;;14.72;91.86;101170.69;107665;1259;71846;-76
2024/04/11 00:13:17;;;;;;;;;;;;;;;14.67;92.70;101167.90;107653;1259;62044;-75
2024/04/11 00:15:46;;;;;;;;;;;;;;;14.63;93.25;101171.88;107672;1259;60826;-76
2024/04/11 00:18:12;;;;;;;;;;;;;;;14.62;93.66;101171.61;107668;1259;74434;-75
2024/04/11 00:20:39;;;;;;;;;;;;;;;14.59;93.81;101171.35;107609;1261;71224;-77
2024/04/11 00:23:06;;;;;;;;;;;;;;;14.54;94.14;101171.88;107552;1261;72556;-77
2024/04/11 00:25:33;;;;;;;;;;;;;;;14.49;94.64;101173.20;107566;1259;62011;-76
2024/04/11 00:28:00;;;;;;;;;;;;;;;14.48;95.13;101172.92;107523;1261;61916;-76
2024/04/11 00:30:27;;;;;;;;;;;;;;;14.46;95.55;101173.94;107504;1261;75311;-76
2024/04/11 00:32:54;;;;;;;;;;;;;;;14.14;98.32;101178.03;107531;1260;72741;-76
2024/04/11 00:35:23;;;;;;;;;;;;;;;14.04;99.91;101184.30;107548;1259;71100;-77
2024/04/11 00:37:51;;;;;;;;;;;;;;;13.97;100.00;101184.55;107561;1260;61298;-75
2024/04/11 00:40:18;;;;;;;;;;;;;;;13.92;100.00;101182.42;107533;1260;60746;-76
2024/04/11 00:42:44;;;;;;;;;;;;;;;13.86;100.00;101183.69;107531;1261;62054;-76
2024/04/11 00:45:12;;;;;;;;;;;;;;;13.80;100.00;101181.80;107489;1259;62044;-76
2024/04/11 00:47:40;;;;;;;;;;;;;;;13.75;100.00;101178.60;107634;1259;71786;-76
2024/04/11 00:50:07;;;;;;;;;;;;;;;13.69;100.00;101180.20;107599;1261;61929;-77
2024/04/11 00:52:34;;;;;;;;;;;;;;;13.65;100.00;101181.03;107603;1265;60893;-77
2024/04/11 00:55:02;;;;;;;;;;;;;;;13.62;100.00;101178.98;107616;1259;75442;-77
2024/04/11 00:57:28;;;;;;;;;;;;;;;13.65;100.00;101180.45;107611;1260;72708;-78
2024/04/11 00:59:55;;;;;;;;;;;;;;;13.92;100.00;101183.71;107536;1261;72686;-77
2024/04/11 01:02:23;;;;;;;;;;;;;;;13.97;100.00;101188.77;107454;1261;61920;-78
2024/04/11 01:04:50;;;;;;;;;;;;;;;13.98;100.00;101191.09;107586;1261;62136;-78
2024/04/11 01:07:17;;;;;;;;;;;;;;;13.97;100.00;101194.68;107596;1262;73911;-77
2024/04/11 01:09:44;;;;;;;;;;;;;;;13.97;99.84;101193.88;107589;1260;71665;-76
2024/04/11 01:12:13;;;;;;;;;;;;;;;13.95;99.50;101195.66;107594;1261;71107;-76
2024/04/11 01:14:41;;;;;;;;;;;;;;;13.92;99.20;101196.17;107536;1260;62104;-76
2024/04/11 01:17:08;;;;;;;;;;;;;;;13.90;99.04;101195.52;107562;1260;62521;-76
2024/04/11 01:19:34;;;;;;;;;;;;;;;13.84;98.92;101194.33;107567;1259;75314;-76
2024/04/11 01:22:01;;;;;;;;;;;;;;;13.80;98.92;101194.04;107654;1263;70384;-76
2024/04/11 01:24:28;;;;;;;;;;;;;;;13.76;99.25;101196.02;107651;1261;71788;-77
2024/04/11 01:26:56;;;;;;;;;;;;;;;13.74;99.44;101195.14;107625;1259;62014;-78
2024/04/11 01:29:23;;;;;;;;;;;;;;;13.71;99.65;101192.98;107624;1259;61355;-76
2024/04/11 01:31:53;;;;;;;;;;;;;;;13.70;99.85;101193.14;107563;1262;75978;-76
2024/04/11 01:34:20;;;;;;;;;;;;;;;13.68;99.98;101189.80;107509;1261;72674;-76
2024/04/11 01:36:47;;;;;;;;;;;;;;;13.66;100.00;101188.52;107645;1259;72732;-75
2024/04/11 01:39:14;;;;;;;;;;;;;;;13.65;100.00;101185.05;107626;1259;61901;-78
2024/04/11 01:41:41;;;;;;;;;;;;;;;13.68;100.00;101185.48;107664;1259;61871;-76
2024/04/11 01:44:09;;;;;;;;;;;;;;;13.68;100.00;101186.52;107592;1259;75413;-76
2024/04/11 01:46:37;;;;;;;;;;;;;;;13.60;100.00;101193.52;107698;1259;73912;-76
2024/04/11 01:49:07;;;;;;;;;;;;;;;13.75;99.98;101195.19;107626;1259;71487;-76
2024/04/11 01:52:09;;;;;;;;;;;;;;;14.04;97.64;101191.88;107640;1259;62084;-76
2024/04/11 01:54:51;;;;;;;;;;;;;;;14.52;92.51;101186.16;107623;1260;61919;-76
2024/04/11 01:57:18;;;;;;;;;;;;;;;14.93;87.56;101187.63;107645;1260;75282;-77
2024/04/11 01:59:46;;;;;;;;;;;;;;;15.04;85.08;101191.11;107651;1259;72834;-78
2024/04/11 02:02:16;;;;;;;;;;;;;;;15.06;83.81;101192.61;107653;1259;71137;-75
2024/04/11 02:04:43;;;;;;;;;;;;;;;13.35;93.08;101200.46;107667;1259;62048;-76
2024/04/11 02:07:10;;;;;;;;;;;;;;;12.18;100.00;101203.55;107689;1259;62004;-76
2024/04/11 02:09:36;;;;;;;;;;;;;;;11.93;100.00;101204.02;107687;1259;75403;-76
2024/04/11 02:12:03;;;;;;;;;;;;;;;11.82;100.00;101202.90;107606;1266;61916;-77
2024/04/11 02:14:31;;;;;;;;;;;;;;;11.75;100.00;101202.91;107595;1261;72564;-76
2024/04/11 02:16:59;;;;;;;;;;;;;;;11.69;100.00;101204.66;107603;1260;61942;-78
2024/04/11 02:19:26;;;;;;;;;;;;;;;11.65;100.00;101201.55;107599;1259;60751;-76
2024/04/11 02:21:52;;;;;;;;;;;;;;;11.61;100.00;101200.77;107601;1261;74072;-77
2024/04/11 02:24:22;;;;;;;;;;;;;;;11.58;100.00;101196.55;107697;1259;70562;-77
2024/04/11 02:26:48;;;;;;;;;;;;;;;11.55;100.00;101203.14;107617;1260;72482;-77
2024/04/11 02:29:16;;;;;;;;;;;;;;;11.51;100.00;101206.40;107584;1261;62041;-75
2024/04/11 02:31:43;;;;;;;;;;;;;;;11.46;100.00;101210.19;107601;1261;61984;-76
2024/04/11 02:34:10;;;;;;;;;;;;;;;11.42;100.00;101213.61;107538;1264;75355;-76
2024/04/11 02:36:38;;;;;;;;;;;;;;;11.38;100.00;101215.75;107543;1260;72421;-76
2024/04/11 02:39:12;;;;;;;;;;;;;;;11.36;100.00;101210.38;107490;1264;73023;-77
2024/04/11 02:41:39;;;;;;;;;;;;;;;11.33;100.00;101213.95;107584;1260;62053;-77
2024/04/11 02:44:05;;;;;;;;;;;;;;;11.30;100.00;101218.04;107577;1260;62108;-76
2024/04/11 02:46:32;;;;;;;;;;;;;;;11.27;100.00;101219.27;107652;1259;73465;-76
2024/04/11 02:48:59;;;;;;;;;;;;;;;11.25;100.00;101217.27;107618;1259;72578;-77
2024/04/11 02:51:27;;;;;;;;;;;;;;;11.24;100.00;101218.70;107649;1259;71462;-77
2024/04/11 02:53:53;;;;;;;;;;;;;;;11.22;100.00;101221.18;107578;1259;62495;-74
2024/04/11 02:56:20;;;;;;;;;;;;;;;11.22;100.00;101223.73;107533;1260;61989;-76
2024/04/11 02:58:48;;;;;;;;;;;;;;;11.21;100.00;101225.70;107555;1259;75237;-76
2024/04/11 03:01:15;;;;;;;;;;;;;;;11.20;100.00;101228.80;107717;1259;72753;-78
2024/04/11 03:03:42;;;;;;;;;;;;;;;11.19;100.00;101228.21;107556;1263;71388;-77
2024/04/11 03:06:17;;;;;;;;;;;;;;;11.17;100.00;101228.48;107569;1261;61986;-77
2024/04/11 03:08:44;;;;;;;;;;;;;;;11.16;100.00;101230.02;107563;1262;61915;-76
2024/04/11 03:11:11;;;;;;;;;;;;;;;11.14;100.00;101229.30;107566;1261;74167;-75
2024/04/11 03:13:40;;;;;;;;;;;;;;;11.11;100.00;101230.32;107588;1261;71280;-76
2024/04/11 03:16:11;;;;;;;;;;;;;;;11.08;100.00;101231.08;107581;1259;72512;-76
2024/04/11 03:18:41;;;;;;;;;;;;;;;11.06;100.00;101232.96;107686;1259;60892;-76
2024/04/11 03:21:08;;;;;;;;;;;;;;;11.00;100.00;101230.31;107769;1259;61937;-76
2024/04/11 03:23:35;;;;;;;;;;;;;;;10.98;100.00;101233.21;107771;1259;75494;-76
2024/04/11 03:26:02;;;;;;;;;;;;;;;10.96;100.00;101232.48;107747;1259;71340;-75
2024/04/11 03:28:29;;;;;;;;;;;;;;;10.95;100.00;101233.38;107787;1259;72693;-76
2024/04/11 03:30:56;;;;;;;;;;;;;;;10.95;100.00;101228.68;107738;1264;61943;-74
2024/04/11 03:33:26;;;;;;;;;;;;;;;10.96;100.00;101233.77;107677;1259;61932;-76
2024/04/11 03:35:56;;;;;;;;;;;;;;;10.98;100.00;101241.23;107707;1259;75334;-76
2024/04/11 03:38:24;;;;;;;;;;;;;;;11.00;100.00;101243.89;107719;1259;70262;-76
2024/04/11 03:41:20;;;;;;;;;;;;;;;11.05;100.00;101240.83;107683;1259;71648;-76
2024/04/11 03:43:47;;;;;;;;;;;;;;;11.11;100.00;101247.42;107667;1259;62081;-76
2024/04/11 03:46:21;;;;;;;;;;;;;;;11.15;100.00;101251.06;107684;1259;61923;-77
2024/04/11 03:48:51;;;;;;;;;;;;;;;11.19;100.00;101248.67;107701;1259;75346;-78
2024/04/11 03:51:18;;;;;;;;;;;;;;;11.24;100.00;101250.05;107669;1259;72433;-78
2024/04/11 03:53:46;;;;;;;;;;;;;;;11.30;100.00;101253.29;107693;1259;72751;-77
2024/04/11 03:56:18;;;;;;;;;;;;;;;11.38;100.00;101255.38;107715;1259;61979;-75
2024/04/11 03:58:45;;;;;;;;;;;;;;;11.46;100.00;101252.88;107728;1259;59741;-77
2024/04/11 04:01:12;;;;;;;;;;;;;;;11.55;100.00;101250.38;107754;1259;75222;-76
2024/04/11 04:03:39;;;;;;;;;;;;;;;11.64;100.00;101254.26;107746;1259;72537;-78
2024/04/11 04:06:08;;;;;;;;;;;;;;;11.73;100.00;101258.71;107758;1259;73065;-76
2024/04/11 04:08:35;;;;;;;;;;;;;;;11.80;100.00;101259.98;107692;1259;61929;-77
2024/04/11 04:11:03;;;;;;;;;;;;;;;11.87;100.00;101267.87;107703;1259;61864;-76
2024/04/11 04:13:30;;;;;;;;;;;;;;;11.93;100.00;101268.45;107683;1259;75619;-77
2024/04/11 04:15:57;;;;;;;;;;;;;;;11.99;100.00;101263.58;107676;1259;72566;-78
2024/04/11 04:18:25;;;;;;;;;;;;;;;12.06;100.00;101262.06;107712;1259;72488;-79
2024/04/11 04:20:53;;;;;;;;;;;;;;;12.16;100.00;101267.21;107657;1260;62058;-76
2024/04/11 04:23:20;;;;;;;;;;;;;;;12.28;100.00;101265.41;107682;1259;62122;-78
2024/04/11 04:25:53;;;;;;;;;;;;;;;12.39;100.00;101261.98;107698;1259;75467;-77
2024/04/11 04:28:20;;;;;;;;;;;;;;;12.53;100.00;101267.94;107560;1260;73702;-76
2024/04/11 04:30:47;;;;;;;;;;;;;;;12.66;100.00;101268.19;107695;1259;72806;-77
2024/04/11 04:33:14;;;;;;;;;;;;;;;12.80;100.00;101267.57;107694;1259;61927;-77
2024/04/11 04:35:43;;;;;;;;;;;;;;;12.98;100.00;101272.39;107566;1263;62045;-76
2024/04/11 04:38:10;;;;;;;;;;;;;;;13.16;100.00;101278.16;107557;1260;75475;-77
2024/04/11 04:40:37;;;;;;;;;;;;;;;13.34;100.00;101273.98;107570;1262;71742;-77
2024/04/11 04:43:05;;;;;;;;;;;;;;;13.53;100.00;101275.02;107541;1264;72720;-78
2024/04/11 04:45:36;;;;;;;;;;;;;;;13.70;100.00;101274.38;107548;1261;62128;-77
2024/04/11 04:48:03;;;;;;;;;;;;;;;13.92;100.00;101276.04;107677;1259;61948;-77
2024/04/11 04:50:30;;;;;;;;;;;;;;;14.06;100.00;101274.34;107667;1259;75412;-77
2024/04/11 04:53:00;;;;;;;;;;;;;;;14.21;100.00;101274.92;107682;1260;70611;-79
2024/04/11 04:55:31;;;;;;;;;;;;;;;14.36;100.00;101280.23;107643;1259;72646;-77
2024/04/11 04:57:58;;;;;;;;;;;;;;;14.52;100.00;101280.84;107660;1259;62154;-78
2024/04/11 05:00:24;;;;;;;;;;;;;;;14.67;100.00;101285.78;107547;1259;61987;-77
2024/04/11 05:02:53;;;;;;;;;;;;;;;14.83;100.00;101287.52;107541;1259;75507;-77
2024/04/11 05:05:20;;;;;;;;;;;;;;;14.97;100.00;101293.45;107665;1259;72734;-77
2024/04/11 05:07:51;;;;;;;;;;;;;;;15.11;100.00;101292.11;107578;1261;72536;-78
2024/04/11 05:10:20;;;;;;;;;;;;;;;15.24;100.00;101290.77;107558;1262;62000;-76
2024/04/11 05:12:49;;;;;;;;;;;;;;;15.38;98.26;101284.94;107572;1260;62037;-77
2024/04/11 05:15:17;;;;;;;;;;;;;;;15.52;95.93;101286.75;107554;1263;76047;-77
2024/04/11 05:17:45;;;;;;;;;;;;;;;15.66;94.05;101281.79;107482;1262;72753;-77
2024/04/11 05:20:17;;;;;;;;;;;;;;;15.80;93.19;101280.15;107584;1261;71253;-77
2024/04/11 05:22:46;;;;;;;;;;;;;;;15.94;92.06;101279.51;107563;1261;61993;-77
2024/04/11 05:25:17;;;;;;;;;;;;;;;16.04;91.00;101280.76;107606;1259;61940;-76
2024/04/11 05:27:44;;;;;;;;;;;;;;;15.88;92.27;101282.64;107483;1261;75218;-76
2024/04/11 05:30:11;;;;;;;;;;;;;;;16.23;90.67;101285.14;107534;1261;72738;-76
2024/04/11 05:32:44;;;;;;;;;;;;;;;16.47;89.20;101280.55;107553;1265;71733;-77
2024/04/11 05:35:12;;;;;;;;;;;;;;;16.65;87.24;101283.41;107533;1265;61875;-77
2024/04/11 05:37:41;;;;;;;;;;;;;;;16.81;85.50;101284.63;107656;1259;62025;-77
2024/04/11 05:40:08;;;;;;;;;;;;;;;17.01;84.05;101283.82;107631;1259;75554;-76
2024/04/11 05:42:44;;;;;;;;;;;;;;;17.17;82.84;101280.89;107607;1262;72594;-77
2024/04/11 05:45:11;;;;;;;;;;;;;;;17.32;82.22;101282.48;107521;1266;71483;-78
2024/04/11 05:47:38;;;;;;;;;;;;;;;17.46;81.63;101287.43;107515;1261;62123;-77
2024/04/11 05:50:06;;;;;;;;;;;;;;;17.60;80.80;101291.61;107559;1261;62037;-78
2024/04/11 05:52:33;;;;;;;;;;;;;;;17.72;80.41;101292.18;107557;1262;75971;-78
2024/04/11 05:55:02;;;;;;;;;;;;;;;17.79;79.02;101294.09;107556;1261;72560;-77
2024/04/11 05:57:29;;;;;;;;;;;;;;;17.86;77.90;101298.49;107550;1263;72693;-77
2024/04/11 05:59:56;;;;;;;;;;;;;;;17.93;76.41;101303.65;107527;1261;61967;-77
2024/04/11 06:02:23;;;;;;;;;;;;;;;18.01;75.24;101304.37;107591;1261;61908;-76
2024/04/11 06:04:52;;;;;;;;;;;;;;;18.07;73.60;101305.77;107527;1261;75493;-75
2024/04/11 06:07:21;;;;;;;;;;;;;;;18.08;72.29;101305.69;107562;1262;73092;-77
2024/04/11 06:09:50;;;;;;;;;;;;;;;18.03;72.43;101313.52;107497;1261;72764;-77
2024/04/11 06:12:19;;;;;;;;;;;;;;;18.00;72.11;101318.11;107619;1261;62010;-75
2024/04/11 06:14:46;;;;;;;;;;;;;;;18.01;72.29;101316.38;107623;1263;61926;-80
2024/04/11 06:17:13;;;;;;;;;;;;;;;18.02;71.87;101316.35;107550;1259;75549;-78
2024/04/11 06:19:40;;;;;;;;;;;;;;;18.02;71.30;101323.55;107661;1265;73096;-77
2024/04/11 06:22:06;;;;;;;;;;;;;;;18.03;70.77;101318.84;107554;1260;72668;-76
2024/04/11 06:24:35;;;;;;;;;;;;;;;18.06;71.06;101320.25;107530;1262;60833;-77
2024/04/11 06:27:02;;;;;;;;;;;;;;;18.12;71.21;101324.73;107590;1259;61884;-76
2024/04/11 06:29:31;;;;;;;;;;;;;;;18.14;70.38;101322.92;107729;1259;75479;-77
2024/04/11 06:32:01;;;;;;;;;;;;;;;18.17;70.41;101324.08;107707;1260;72874;-77
2024/04/11 06:34:27;;;;;;;;;;;;;;;18.20;70.05;101328.15;107555;1261;72984;-77
2024/04/11 06:36:56;;;;;;;;;;;;;;;18.23;70.07;101327.10;107494;1261;62113;-77
2024/04/11 06:39:24;;;;;;;;;;;;;;;18.26;69.64;101329.59;107614;1259;61906;-77
2024/04/11 06:41:51;;;;;;;;;;;;;;;18.30;69.12;101331.86;107604;1264;76588;-77
2024/04/11 06:44:18;;;;;;;;;;;;;;;18.36;68.89;101331.08;107583;1263;72597;-76
2024/04/11 06:46:45;;;;;;;;;;;;;;;18.43;68.84;101337.00;107573;1260;71525;-76
2024/04/11 06:49:12;;;;;;;;;;;;;;;18.49;68.39;101334.27;107588;1261;61894;-77
2024/04/11 06:51:39;;;;;;;;;;;;;;;18.59;68.81;101332.42;107588;1261;61906;-76
2024/04/11 06:54:09;;;;;;;;;;;;;;;18.69;68.85;101336.01;107562;1262;75604;-77
2024/04/11 06:56:36;;;;;;;;;;;;;;;18.82;68.13;101341.98;107552;1265;72824;-77
2024/04/11 06:59:10;;;;;;;;;;;;;;;18.91;67.46;101347.13;107566;1262;71665;-78
2024/04/11 07:01:37;;;;;;;;;;;;;;;18.99;67.33;101343.61;107196;1264;546655;-75
2024/04/11 07:04:06;;;;;;;;;;;;;;;19.08;67.61;101340.71;107578;1261;62136;-77
2024/04/11 07:06:35;;;;;;;;;;;;;;;19.19;67.05;101340.31;107605;1260;75574;-77
2024/04/11 07:09:03;;;;;;;;;;;;;;;19.27;66.17;101345.39;107534;1264;72623;-78
2024/04/11 07:11:40;;;;;;;;;;;;;;;19.09;66.85;101342.58;107607;1260;73377;-78
2024/04/11 07:14:15;;;;;;;;;;;;;;;18.99;66.57;101348.86;107608;1260;61957;-79
2024/04/11 07:16:44;;;;;;;;;;;;;;;18.98;66.80;101343.17;107663;1261;61432;-76
2024/04/11 07:19:11;;;;;;;;;;;;;;;19.01;67.47;101351.54;107691;1259;75021;-76
2024/04/11 07:21:39;;;;;;;;;;;;;;;19.07;67.95;101354.14;107706;1264;72711;-77
2024/04/11 07:24:06;;;;;;;;;;;;;;;19.17;67.61;101354.20;107567;1260;71264;-77
2024/04/11 07:26:33;;;;;;;;;;;;;;;19.52;65.16;101354.33;107566;1261;61948;-76
2024/04/11 07:29:01;;;;;;;;;;;;;;;19.64;64.27;101354.14;107597;1260;61939;-77
2024/04/11 07:31:31;;;;;;;;;;;;;;;19.70;63.86;101355.41;107558;1263;76558;-78
2024/04/11 07:34:02;;;;;;;;;;;;;;;19.76;63.39;101354.81;107569;1265;72956;-76
2024/04/11 07:36:30;;;;;;;;;;;;;;;19.85;63.32;101357.24;107545;1260;71536;-76
2024/04/11 07:38:59;;;;;;;;;;;;;;;19.97;62.99;101359.34;107661;1260;61899;-77
2024/04/11 07:41:44;;;;;;;;;;;;;;;20.08;62.13;101363.05;107691;1259;61905;-77
2024/04/11 07:44:11;;;;;;;;;;;;;;;20.20;61.47;101360.48;107575;1264;75464;-79
2024/04/11 07:46:38;;;;;;;;;;;;;;;20.31;61.20;101364.27;107611;1260;72111;-78
2024/04/11 07:49:17;;;;;;;;;;;;;;;20.40;60.64;101363.38;107566;1261;72741;-76
2024/04/11 07:51:44;;;;;;;;;;;;;;;20.47;60.04;101366.01;107735;1264;59708;-78
2024/04/11 07:54:15;;;;;;;;;;;;;;;20.54;59.88;101367.98;107581;1260;60055;-78
2024/04/11 07:57:00;;;;;;;;;;;;;;;20.64;59.86;101365.27;107545;1263;75543;-78
2024/04/11 07:59:27;;;;;;;;;;;;;;;20.76;59.98;101365.52;107534;1261;73789;-78
2024/04/11 08:01:54;;;;;;;;;;;;;;;20.89;59.72;101369.39;107730;1264;72763;-77
2024/04/11 08:04:20;;;;;;;;;;;;;;;20.95;59.58;101370.94;107546;1261;61229;-76
2024/04/11 08:06:47;;;;;;;;;;;;;;;21.08;58.41;101370.30;107541;1263;59554;-77
2024/04/11 08:09:14;;;;;;;;;;;;;;;21.15;58.09;101370.45;107543;1261;76668;-77
2024/04/11 08:11:41;;;;;;;;;;;;;;;21.19;58.16;101367.48;107556;1261;73950;-77
2024/04/11 08:14:08;;;;;;;;;;;;;;;21.26;57.92;101371.11;107555;1265;74050;-77
2024/04/11 08:16:36;;;;;;;;;;;;;;;21.32;57.55;101372.89;107649;1262;61861;-77
2024/04/11 08:19:05;;;;;;;;;;;;;;;21.39;57.50;101370.08;107611;1261;61962;-78
2024/04/11 08:21:32;;;;;;;;;;;;;;;21.41;56.95;101371.37;107544;1261;75244;-76
2024/04/11 08:24:03;;;;;;;;;;;;;;;21.49;57.38;101370.42;107556;1263;71407;-77
2024/04/11 08:26:32;;;;;;;;;;;;;;;21.60;57.00;101370.42;107570;1265;73037;-78
2024/04/11 08:29:00;;;;;;;;;;;;;;;21.66;56.72;101373.69;107472;1262;60649;-78
2024/04/11 08:31:30;;;;;;;;;;;;;;;21.72;57.01;101371.39;107535;1263;61467;-77
2024/04/11 08:33:57;;;;;;;;;;;;;;;21.83;56.53;101374.27;107559;1265;75472;-76
2024/04/11 08:36:26;;;;;;;;;;;;;;;21.91;56.54;101369.42;107564;1260;72459;-75
2024/04/11 08:38:55;;;;;;;;;;;;;;;21.98;55.58;101370.48;107522;1265;71783;-76
2024/04/11 08:41:22;;;;;;;;;;;;;;;22.02;55.60;101369.82;107621;1260;62016;-76
2024/04/11 08:43:50;;;;;;;;;;;;;;;22.11;55.73;101376.33;107720;1259;62389;-76
2024/04/11 08:46:17;;;;;;;;;;;;;;;22.22;55.12;101379.11;107540;1266;76764;-77
2024/04/11 08:48:43;;;;;;;;;;;;;;;22.31;55.26;101377.70;107690;1263;72985;-77
2024/04/11 08:51:21;;;;;;;;;;;;;;;22.41;54.94;101373.88;107706;1260;72786;-77
2024/04/11 08:53:48;;;;;;;;;;;;;;;22.51;54.93;101377.45;107696;1262;61884;-77
2024/04/11 08:56:31;;;;;;;;;;;;;;;22.54;54.62;101374.48;107701;1264;61917;-78
2024/04/11 08:58:58;;;;;;;;;;;;;;;22.55;54.21;101374.30;107715;1264;75490;-78
2024/04/11 09:01:25;;;;;;;;;;;;;;;22.57;54.37;101373.52;107665;1265;71975;-77
2024/04/11 09:03:52;;;;;;;;;;;;;;;22.61;54.29;101376.39;107714;1259;72958;-78
2024/04/11 09:06:28;;;;;;;;;;;;;;;22.64;54.32;101378.54;107704;1265;61820;-77
2024/04/11 09:08:56;;;;;;;;;;;;;;;22.69;54.06;101380.63;107728;1262;61945;-78
2024/04/11 09:11:26;;;;;;;;;;;;;;;22.79;54.05;101379.88;107712;1265;74437;-78
2024/04/11 09:14:00;;;;;;;;;;;;;;;22.92;53.99;101378.80;107695;1261;72587;-77
2024/04/11 09:16:27;;;;;;;;;;;;;;;23.03;53.13;101379.98;107607;1262;71591;-77
2024/04/11 09:19:10;;;;;;;;;;;;;;;23.11;53.13;101376.88;107576;1265;61880;-77
2024/04/11 09:21:44;;;;;;;;;;;;;;;23.21;52.80;101381.52;107576;1263;61943;-77
2024/04/11 09:24:23;;;;;;;;;;;;;;;23.27;52.61;101377.49;107546;1260;75686;-77
2024/04/11 09:26:51;;;;;;;;;;;;;;;23.34;52.67;101375.69;107565;1265;73010;-79
2024/04/11 09:29:18;;;;;;;;;;;;;;;23.44;52.12;101378.38;107554;1263;72717;-77
2024/04/11 09:31:50;;;;;;;;;;;;;;;23.52;51.83;101374.89;107583;1260;61907;-77
2024/04/11 09:34:20;;;;;;;;;;;;;;;23.59;52.31;101373.56;107499;1261;61114;-77
2024/04/11 09:36:47;;;;;;;;;;;;;;;23.73;51.67;101372.77;107686;1261;75627;-77
2024/04/11 09:39:41;;;;;;;;;;;;;;;23.82;51.36;101374.80;107613;1260;72966;-77
2024/04/11 09:42:12;;;;;;;;;;;;;;;23.92;50.99;101373.92;107661;1263;71766;-79
2024/04/11 09:44:48;;;;;;;;;;;;;;;24.01;50.59;101378.44;107671;1260;61364;-78
2024/04/11 09:47:19;;;;;;;;;;;;;;;24.09;49.79;101379.23;107677;1261;62369;-78
2024/04/11 09:49:59;;;;;;;;;;;;;;;24.15;49.11;101377.24;107590;1261;75571;-79
2024/04/11 09:52:27;;;;;;;;;;;;;;;24.17;49.16;101382.91;107605;1260;73219;-78
2024/04/11 09:55:02;;;;;;;;;;;;;;;24.20;49.58;101378.16;107523;1261;72880;-78
2024/04/11 09:57:36;;;;;;;;;;;;;;;24.26;49.37;101384.02;107532;1260;62040;-78
2024/04/11 10:00:22;;;;;;;;;;;;;;;24.34;48.87;101383.67;107670;1260;60917;-76
2024/04/11 10:02:55;;;;;;;;;;;;;;;24.43;48.68;101383.58;107565;1260;75609;-77
2024/04/11 10:05:25;;;;;;;;;;;;;;;24.51;48.44;101377.25;107515;1261;72970;-78
2024/04/11 10:07:58;;;;;;;;;;;;;;;24.61;48.72;101372.64;107536;1261;73016;-77
2024/04/11 10:10:29;;;;;;;;;;;;;;;24.70;48.30;101375.75;107498;1260;61937;-76
2024/04/11 10:13:05;;;;;;;;;;;;;;;24.72;48.08;101378.83;107534;1260;62003;-78
2024/04/11 10:15:34;;;;;;;;;;;;;;;24.73;47.07;101380.64;107457;1260;75584;-78
2024/04/11 10:18:05;;;;;;;;;;;;;;;24.74;47.40;101378.73;107530;1265;74028;-77
2024/04/11 10:20:42;;;;;;;;;;;;;;;24.84;47.32;101383.02;107546;1261;72527;-77
2024/04/11 10:23:10;;;;;;;;;;;;;;;24.90;46.71;101386.27;107562;1260;61909;-78
2024/04/11 10:25:39;;;;;;;;;;;;;;;24.93;46.51;101380.77;107645;1260;61874;-78
2024/04/11 10:28:14;;;;;;;;;;;;;;;24.98;46.20;101383.05;107547;1267;76692;-77
2024/04/11 10:30:42;;;;;;;;;;;;;;;24.99;45.79;101388.71;107603;1263;70660;-77
2024/04/11 10:33:13;;;;;;;;;;;;;;;24.87;45.66;101387.87;107605;1261;73202;-78
2024/04/11 10:35:40;;;;;;;;;;;;;;;24.65;46.14;101388.84;107651;1264;62055;-76
2024/04/11 10:38:12;;;;;;;;;;;;;;;24.55;46.61;101390.27;107630;1261;61994;-80
2024/04/11 10:40:44;;;;;;;;;;;;;;;24.51;46.92;101386.63;107651;1261;76620;-78
2024/04/11 10:43:11;;;;;;;;;;;;;;;24.58;47.31;101387.41;107845;1260;74091;-78
2024/04/11 10:45:39;;;;;;;;;;;;;;;24.75;47.34;101390.15;107567;1265;71486;-76
2024/04/11 10:48:09;;;;;;;;;;;;;;;24.81;46.35;101392.13;107528;1261;62078;-78
2024/04/11 10:50:36;;;;;;;;;;;;;;;24.71;46.16;101385.59;107546;1260;61958;-77
2024/04/11 10:53:03;;;;;;;;;;;;;;;24.52;46.35;101391.02;107579;1260;76000;-78
2024/04/11 10:55:30;;;;;;;;;;;;;;;24.43;46.73;101389.39;107641;1261;72882;-77
2024/04/11 11:06:30;;;;;;;;;;;;;;;24.59;46.59;101380.98;107604;1261;75656;-79
2024/04/11 11:09:10;;;;;;;;;;;;;;;24.76;46.05;101382.48;107543;1261;72844;-78
2024/04/11 11:11:40;;;;;;;;;;;;;;;24.90;45.62;101386.76;107639;1260;72637;-78
2024/04/11 11:14:10;;;;;;;;;;;;;;;25.03;45.55;101379.89;107662;1262;61965;-78
2024/04/11 11:16:38;;;;;;;;;;;;;;;25.14;45.11;101374.35;107710;1260;61941;-78
2024/04/11 11:19:05;;;;;;;;;;;;;;;25.22;44.80;101368.04;107659;1260;75800;-78
2024/04/11 11:21:40;;;;;;;;;;;;;;;25.27;44.38;101373.91;107671;1260;73863;-77
2024/04/11 11:24:08;;;;;;;;;;;;;;;25.29;44.18;101367.30;107713;1260;72154;-78
2024/04/11 11:26:35;;;;;;;;;;;;;;;25.30;44.25;101369.77;107676;1261;61935;-78
2024/04/11 11:29:11;;;;;;;;;;;;;;;25.34;44.17;101365.00;107608;1261;62045;-76
2024/04/11 11:31:40;;;;;;;;;;;;;;;25.38;44.30;101368.11;107510;1261;75607;-77
2024/04/11 11:34:10;;;;;;;;;;;;;;;25.14;44.28;101366.86;107550;1261;74617;-77
2024/04/11 11:36:38;;;;;;;;;;;;;;;25.00;44.78;101368.00;107520;1260;73856;-77
2024/04/11 11:39:05;;;;;;;;;;;;;;;25.01;45.05;101364.02;107571;1261;61818;-77
2024/04/11 11:41:37;;;;;;;;;;;;;;;25.06;44.86;101363.34;107574;1260;61894;-78
2024/04/11 11:44:17;;;;;;;;;;;;;;;25.07;44.11;101359.70;107584;1260;76419;-77
2024/04/11 11:46:44;;;;;;;;;;;;;;;25.04;43.92;101365.19;107616;1259;73744;-78
2024/04/11 11:49:12;;;;;;;;;;;;;;;25.05;43.61;101370.90;107663;1260;72774;-78
2024/04/11 11:51:39;;;;;;;;;;;;;;;25.03;43.50;101369.75;107555;1260;62052;-77
2024/04/11 11:54:12;;;;;;;;;;;;;;;24.97;43.41;101371.61;107528;1261;62034;-78
2024/04/11 11:56:42;;;;;;;;;;;;;;;24.87;43.61;101368.38;107574;1261;75546;-78
2024/04/11 11:59:09;;;;;;;;;;;;;;;24.84;44.01;101366.66;107636;1260;70844;-77
2024/04/11 12:01:41;;;;;;;;;;;;;;;24.84;43.97;101368.19;107658;1260;72636;-77
2024/04/11 12:04:10;;;;;;;;;;;;;;;24.82;44.04;101361.10;107578;1260;62035;-77
2024/04/11 12:06:37;;;;;;;;;;;;;;;24.90;43.85;101366.91;107615;1260;61246;-76
2024/04/11 12:09:10;;;;;;;;;;;;;;;24.96;43.34;101368.54;107673;1261;76696;-82
2024/04/11 12:11:53;;;;;;;;;;;;;;;24.98;43.33;101363.70;107608;1260;71873;-77
2024/04/11 12:14:34;;;;;;;;;;;;;;;25.00;43.19;101353.55;107607;1260;72723;-78
2024/04/11 12:17:04;;;;;;;;;;;;;;;25.02;42.91;101356.88;107546;1260;60804;-78
2024/04/11 12:19:31;;;;;;;;;;;;;;;25.01;42.69;101364.06;107610;1260;61885;-78
2024/04/11 12:22:10;;;;;;;;;;;;;;;25.02;42.74;101357.22;107605;1260;73807;-78
2024/04/11 12:24:39;;;;;;;;;;;;;;;25.06;42.97;101360.15;107653;1261;72963;-77
2024/04/11 12:27:13;;;;;;;;;;;;;;;25.12;42.92;101360.21;107652;1260;71748;-77
2024/04/11 12:29:42;;;;;;;;;;;;;;;25.14;42.28;101358.28;107574;1260;60670;-77
2024/04/11 12:32:12;;;;;;;;;;;;;;;25.13;42.06;101349.73;107606;1260;61022;-77
2024/04/11 12:34:42;;;;;;;;;;;;;;;25.11;42.14;101350.83;107536;1259;74003;-77
2024/04/11 12:37:15;;;;;;;;;;;;;;;25.11;41.91;101348.54;107624;1260;73777;-78
2024/04/11 12:39:45;;;;;;;;;;;;;;;25.11;41.88;101351.44;107541;1260;71711;-77
2024/04/11 12:42:17;;;;;;;;;;;;;;;25.11;41.53;101354.04;107601;1260;62037;-77